• Join FlightAware (Why Join?)
  • Login
  • US Flag 
01:10AM EDT


 

Airport Tracker/Info


-or-


 

Live Flight TrackerFlight Track Log ✈ N551US ✈ 06-May-2014 ✈ M01 - KGAD

Flight Track Log - Related Links

Times and Time Zones

All times are in EDT time to prevent confusion due to time zone crossing. See the N551US flight status page for this flight to view local times or setup timezone preferences in your user account.

Time Position Orientation Groundspeed Altitude Reporting Facility
EDT Latitude Longitude Course Direction KTS MPH feet Rate Location/Type
04:47PM 35.1833 -90.0500 270° West 81 93 700  Level KMEM
04:47PM 35.1833 -90.0833 270° West 130 150 1,100 660 Climbing KMEM
04:48PM 35.2000 -90.1333 292° West 147 169 1,900 780 Climbing KMEM
04:49PM 35.2167 -90.1500 321° Northwest 174 200 2,700 540 Climbing KMEM
04:50PM 35.2667 -90.1333 15° North 182 209 3,000 180 Climbing KMEM
04:51PM 35.2489 -90.1078 130° Southeast 171 197 3,000 540 Level Memphis Center
04:52PM 35.2308 -90.0619 116° Southeast 156 180 3,900 720 Climbing Memphis Center
04:53PM 35.2172 -90.0125 109° East 152 175 4,500 480 Climbing Memphis Center
04:54PM 35.2022 -89.9642 111° Southeast 152 175 5,000 480 Climbing Memphis Center
04:55PM 35.1878 -89.9144 110° East 152 175 5,600 540 Climbing Memphis Center
04:56PM 35.1711 -89.8556 109° East 152 175 6,200 480 Climbing Memphis Center
04:57PM 35.1550 -89.8061 112° Southeast 153 176 6,700 360 Climbing Memphis Center
04:58PM 35.1403 -89.7556 110° East 153 176 7,000 120 Climbing Memphis Center
04:59PM 35.1247 -89.7008 109° East 164 189 7,000  Level Memphis Center
05:00PM 35.1069 -89.6419 110° East 178 205 7,000 -60 Level Memphis Center
05:01PM 35.0889 -89.5833 111° Southeast 180 207 6,900 -60 Descending Memphis Center
05:02PM 35.0681 -89.5131 110° East 180 207 6,900  Level Memphis Center
05:03PM 35.0503 -89.4550 110° East 180 207 6,900  Level Memphis Center
05:04PM 35.0322 -89.3947 110° East 184 212 6,900  Level Memphis Center
05:05PM 35.0142 -89.3350 110° East 184 212 6,900  Level Memphis Center
05:06PM 34.9961 -89.2767 111° Southeast 185 213 7,000  Climbing Memphis Center
05:07PM 34.9786 -89.2169 110° East 185 213 7,000  Level Memphis Center
05:08PM 34.9606 -89.1589 111° Southeast 185 213 7,000  Level Memphis Center
05:09PM 34.9403 -89.0903 110° East 184 212 7,000  Level Memphis Center
05:11PM 34.9222 -89.0319 111° Southeast 184 212 7,000  Level Memphis Center
05:12PM 34.9042 -88.9756 111° Southeast 183 211 7,000  Level Memphis Center
05:13PM 34.8875 -88.9192 110° East 181 208 7,000  Level Memphis Center
05:14PM 34.8694 -88.8619 111° Southeast 181 208 7,000  Level Memphis Center
05:15PM 34.8528 -88.8056 110° East 181 208 7,000  Level Memphis Center
05:16PM 34.8308 -88.7375 111° Southeast 181 208 7,000  Level Memphis Center
05:17PM 34.8136 -88.6814 110° East 180 207 7,000  Level Memphis Center
05:18PM 34.7958 -88.6247 111° Southeast 180 207 7,000  Level Memphis Center
05:19PM 34.7792 -88.5675 110° East 180 207 7,000  Level Memphis Center
05:20PM 34.7603 -88.5111 112° Southeast 180 207 7,000  Level Memphis Center
05:21PM 34.7414 -88.4492 110° East 180 207 7,000  Level Memphis Center
05:22PM 34.7236 -88.3933 111° Southeast 179 206 7,000  Level Memphis Center
05:23PM 34.7064 -88.3369 110° East 179 206 7,000  Level Memphis Center
05:24PM 34.6894 -88.2811 110° East 179 206 7,000  Level Memphis Center
05:25PM 34.6681 -88.2136 111° Southeast 179 206 7,000  Level Memphis Center
05:26PM 34.6489 -88.1578 113° Southeast 179 206 7,100  Climbing Memphis Center
05:27PM 34.6314 -88.1000 110° East 179 206 7,100  Level Memphis Center
05:28PM 34.6131 -88.0417 111° Southeast 181 208 7,100  Level Memphis Center
05:29PM 34.5950 -87.9847 111° Southeast 182 209 7,100  Level Memphis Center
05:30PM 34.5769 -87.9275 111° Southeast 182 209 7,100  Level Memphis Center
05:31PM 34.5547 -87.8592 112° Southeast 182 209 7,100  Level Memphis Center
05:32PM 34.5386 -87.8081 111° Southeast 182 209 7,100  Level Memphis Center
05:33PM 34.5183 -87.7442 111° Southeast 182 209 7,100  Level Memphis Center
05:34PM 34.4997 -87.6867 111° Southeast 182 209 7,100  Level Memphis Center
05:35PM 34.4811 -87.6281 111° Southeast 182 209 7,100  Level Memphis Center
05:36PM 34.4622 -87.5700 112° Southeast 182 209 7,100  Level Memphis Center
05:37PM 34.4433 -87.5097 111° Southeast 182 209 7,100  Level Memphis Center
05:38PM 34.4239 -87.4506 112° Southeast 182 209 7,100  Level Memphis Center
05:39PM 34.4014 -87.3800 111° Southeast 183 211 7,100  Level Memphis Center
05:41PM 34.3825 -87.3219 112° Southeast 183 211 7,100 -180 Level Memphis Center
05:42PM 34.3636 -87.2647 112° Southeast 183 211 6,800 -360 Descending Memphis Center
05:43PM 34.3439 -87.2031 111° Southeast 187 215 6,400 -420 Descending Memphis Center
05:44PM 34.3244 -87.1433 112° Southeast 190 219 6,000 -420 Descending Memphis Center
05:45PM 34.3064 -87.0872 111° Southeast 187 215 5,600 -420 Descending Memphis Center
05:46PM 34.2833 -87.0169 112° Southeast 186 214 5,200 -300 Descending Memphis Center
05:47PM 34.2636 -86.9581 112° Southeast 187 215 5,000 -120 Descending Memphis Center
05:48PM 34.2450 -86.8992 111° Southeast 187 215 5,000  Level Memphis Center
05:49PM 34.2264 -86.8433 112° Southeast 186 214 5,000  Level Memphis Center
05:50PM 34.2081 -86.7872 112° Southeast 184 212 5,000  Level Memphis Center
05:51PM 34.1886 -86.7317 113° Southeast 184 212 5,000  Level Memphis Center
05:52PM 34.1675 -86.6633 110° East 183 211 5,000  Level Memphis Center
05:53PM 34.1475 -86.6072 113° Southeast 183 211 5,000 -120 Level Memphis Center
05:54PM 34.1278 -86.5511 113° Southeast 183 211 4,800 -480 Descending Memphis Center
05:54PM 34.1156 -86.5228 118° Southeast 174 200 4,300 -780 Descending Atlanta Center
05:55PM 34.1039 -86.4872 112° Southeast 165 190 3,900 -600 Descending Atlanta Center
05:56PM 34.0881 -86.4367 111° Southeast 165 190 3,300 -360 Descending Atlanta Center
05:58PM 34.0572 -86.3339 110° East 168 193 3,000 -180 Descending Memphis Center
05:59PM 34.0386 -86.2839 114° Southeast 167 192 2,800 -180 Descending Memphis Center
06:00PM 34.0214 -86.2369 114° Southeast 167 192 2,700 -120 Descending Memphis Center
06:02PM 33.9977 -86.1724 114° Southeast  Level FlightAware Approximate